KHII/HII METAR and TAF weather

Enter ICAO airport designator
Station Type Date Time Source
KHII METAR 2018/12/15 01:55 UTC NOAA

KHII 150155Z AUTO 32009KT 10SM CLR 14/M07 A3019 RMK AO2


Station Type Date Time Source
KHII Decoded METAR 2018/12/15 01:55 UTC NOAA

Station name not available
Dec 14, 2018 - 08:55 PM EST / 2018.12.15 0155 UTC
Wind: from the NW (320 degrees) at 10 MPH (9 KT):0
Visibility: 10 mile(s):0
Sky conditions: clear
Temperature: 57 F (14 C)
Dew Point: 19 F (-7 C)
Relative Humidity: 22%
Pressure (altimeter): 30.19 in. Hg (1022 hPa)
ob: KHII 150155Z AUTO 32009KT 10SM CLR 14/M07 A3019 RMK AO2
cycle: 2

Station Type Date Time Source
KHII TAF UTC NOAA

Error!


Example: see airport list